createdAt,value
2022-08-28T00:00:10.503Z,13.83
2022-08-28T00:01:10.489Z,13.84
2022-08-28T00:02:10.485Z,13.87
2022-08-28T00:03:10.615Z,13.81
2022-08-28T00:04:10.519Z,13.81
2022-08-28T00:05:10.464Z,13.76
2022-08-28T00:06:10.439Z,13.76
2022-08-28T00:07:10.424Z,13.71
2022-08-28T00:08:10.584Z,13.72
2022-08-28T00:09:11.440Z,13.75
2022-08-28T00:10:10.388Z,13.80
2022-08-28T00:11:10.380Z,13.80
2022-08-28T00:12:10.366Z,13.79
2022-08-28T00:13:10.356Z,13.76
2022-08-28T00:14:10.344Z,13.71
2022-08-28T00:15:10.336Z,13.76
2022-08-28T00:16:10.651Z,13.72
2022-08-28T00:17:10.315Z,13.73
2022-08-28T00:18:10.309Z,13.71
2022-08-28T00:19:10.289Z,13.63
2022-08-28T00:20:10.647Z,13.66
2022-08-28T00:21:10.341Z,13.65
2022-08-28T00:22:10.375Z,13.63
2022-08-28T00:23:10.298Z,13.61
2022-08-28T00:24:10.237Z,13.61
2022-08-28T00:25:10.425Z,13.55
2022-08-28T00:26:10.212Z,13.62
2022-08-28T00:27:10.203Z,13.61
2022-08-28T00:28:10.589Z,13.59
2022-08-28T00:29:11.205Z,13.54
2022-08-28T00:30:10.166Z,13.55
2022-08-28T00:31:10.197Z,13.59
2022-08-28T00:32:10.147Z,13.61
2022-08-28T00:33:10.636Z,13.69
2022-08-28T00:34:10.125Z,13.68
2022-08-28T00:35:10.113Z,13.69
2022-08-28T00:36:10.101Z,13.72
2022-08-28T00:37:10.093Z,13.65
2022-08-28T00:38:10.174Z,13.69
2022-08-28T00:39:10.067Z,13.69
2022-08-28T00:40:10.083Z,13.69
2022-08-28T00:41:10.047Z,13.63
2022-08-28T00:42:10.037Z,13.62
2022-08-28T00:43:10.031Z,13.59
2022-08-28T00:44:10.144Z,13.53
2022-08-28T00:45:10.002Z,13.44
2022-08-28T00:46:10.055Z,13.47
2022-08-28T00:47:09.982Z,13.41
2022-08-28T00:48:09.967Z,13.39
2022-08-28T00:49:09.959Z,13.43
2022-08-28T00:50:09.945Z,13.39
2022-08-28T00:51:09.937Z,13.44
2022-08-28T00:52:11.715Z,13.48
2022-08-28T00:53:09.912Z,13.50
2022-08-28T00:54:09.902Z,13.51
2022-08-28T00:55:09.889Z,13.47
2022-08-28T00:56:12.289Z,13.43
2022-08-28T00:57:09.869Z,13.39
2022-08-28T00:58:09.855Z,13.43
2022-08-28T00:59:09.845Z,13.36
2022-08-28T01:00:09.833Z,13.35
2022-08-28T01:01:09.824Z,13.24
2022-08-28T01:02:09.813Z,13.29
2022-08-28T01:03:09.918Z,13.25
2022-08-28T01:04:09.787Z,13.29
2022-08-28T01:05:09.791Z,13.31
2022-08-28T01:06:09.767Z,13.31
2022-08-28T01:07:09.755Z,13.31
2022-08-28T01:08:09.875Z,13.25
2022-08-28T01:09:09.734Z,13.22
2022-08-28T01:10:09.722Z,13.22
2022-08-28T01:11:09.712Z,13.22
2022-08-28T01:12:09.703Z,13.16
2022-08-28T01:13:09.688Z,13.14
2022-08-28T01:14:09.674Z,13.12
2022-08-28T01:15:09.669Z,13.06
2022-08-28T01:16:09.741Z,13.07
2022-08-28T01:17:09.645Z,12.95
2022-08-28T01:18:09.731Z,12.87
2022-08-28T01:19:09.622Z,12.91
2022-08-28T01:20:09.611Z,12.92
2022-08-28T01:21:09.602Z,12.94
2022-08-28T01:22:09.596Z,12.95
2022-08-28T01:23:09.583Z,12.98
2022-08-28T01:24:09.568Z,12.95
2022-08-28T01:25:09.554Z,12.85
2022-08-28T01:26:10.978Z,12.85
2022-08-28T01:27:09.549Z,12.74
2022-08-28T01:28:09.520Z,12.71
2022-08-28T01:29:09.514Z,12.71
2022-08-28T01:30:09.500Z,12.70
2022-08-28T01:31:09.627Z,12.70
2022-08-28T01:32:09.478Z,12.76
2022-08-28T01:33:09.467Z,12.77
2022-08-28T01:34:09.454Z,12.73
2022-08-28T01:35:09.441Z,12.63
2022-08-28T01:36:09.431Z,12.66
2022-08-28T01:37:09.521Z,12.66
2022-08-28T01:38:09.554Z,12.62
2022-08-28T01:39:09.397Z,12.55
2022-08-28T01:40:09.504Z,12.52
2022-08-28T01:41:09.374Z,12.55
2022-08-28T01:42:09.365Z,12.48
2022-08-28T01:43:09.350Z,12.43
2022-08-28T01:44:09.344Z,12.41
2022-08-28T01:45:09.332Z,12.38
2022-08-28T01:46:09.335Z,12.40
2022-08-28T01:47:09.310Z,12.48
2022-08-28T01:48:09.426Z,12.54
2022-08-28T01:49:09.284Z,12.58
2022-08-28T01:50:09.276Z,12.54
2022-08-28T01:51:09.259Z,12.62
2022-08-28T01:52:09.251Z,12.61
2022-08-28T01:53:12.396Z,12.67
2022-08-28T01:54:09.905Z,12.69
2022-08-28T01:55:09.219Z,12.67
2022-08-28T01:56:09.208Z,12.73
2022-08-28T01:57:09.193Z,12.73
2022-08-28T01:58:09.311Z,12.69
2022-08-28T01:59:09.176Z,12.70
2022-08-28T02:00:09.161Z,12.61
2022-08-28T02:01:09.151Z,12.63
2022-08-28T02:02:09.254Z,12.67
2022-08-28T02:03:09.126Z,12.71
2022-08-28T02:04:09.198Z,12.69
2022-08-28T02:05:09.109Z,12.63
2022-08-28T02:06:09.095Z,12.66
2022-08-28T02:07:09.084Z,12.59
2022-08-28T02:08:09.160Z,12.59
2022-08-28T02:09:14.640Z,12.56
2022-08-28T02:10:09.052Z,12.49
2022-08-28T02:11:09.042Z,12.43
2022-08-28T02:12:09.029Z,12.52
2022-08-28T02:13:09.016Z,12.49
2022-08-28T02:14:09.006Z,12.44
2022-08-28T02:15:08.997Z,12.44
2022-08-28T02:16:09.078Z,12.48
2022-08-28T02:17:08.971Z,12.44
2022-08-28T02:18:09.079Z,12.40
2022-08-28T02:19:08.950Z,12.38
2022-08-28T02:20:08.939Z,12.41
2022-08-28T02:21:08.928Z,12.37
2022-08-28T02:22:08.919Z,12.37
2022-08-28T02:23:08.903Z,12.36
2022-08-28T02:24:08.893Z,12.33
2022-08-28T02:25:08.881Z,12.26
2022-08-28T02:26:08.872Z,12.15
2022-08-28T02:27:08.860Z,12.22
2022-08-28T02:28:08.962Z,12.29
2022-08-28T02:29:08.837Z,12.26
2022-08-28T02:30:08.827Z,12.31
2022-08-28T02:31:08.910Z,12.30
2022-08-28T02:32:08.805Z,12.36
2022-08-28T02:33:08.793Z,12.33
2022-08-28T02:34:08.781Z,12.37
2022-08-28T02:35:12.056Z,12.38
2022-08-28T02:36:08.784Z,12.40
2022-08-28T02:37:08.749Z,12.46
2022-08-28T02:38:08.760Z,12.48
2022-08-28T02:39:08.723Z,12.49
2022-08-28T02:40:08.751Z,12.51
2022-08-28T02:41:08.702Z,12.56
2022-08-28T02:42:08.695Z,12.52
2022-08-28T02:43:08.681Z,12.52
2022-08-28T02:44:08.671Z,12.49
2022-08-28T02:45:08.656Z,12.46
2022-08-28T02:46:08.743Z,12.43
2022-08-28T02:47:08.633Z,12.37
2022-08-28T02:48:15.689Z,12.36
2022-08-28T02:49:09.646Z,12.37
2022-08-28T02:50:08.603Z,12.37
2022-08-28T02:51:08.589Z,12.38
2022-08-28T02:52:08.580Z,12.37
2022-08-28T02:53:08.570Z,12.36
2022-08-28T02:54:08.557Z,12.34
2022-08-28T02:55:08.547Z,12.34
2022-08-28T02:56:08.536Z,12.38
2022-08-28T02:57:08.522Z,12.41
2022-08-28T02:58:08.556Z,12.44
2022-08-28T02:59:08.501Z,12.46
2022-08-28T03:00:08.488Z,12.44
2022-08-28T03:01:08.541Z,12.46
2022-08-28T03:02:08.510Z,12.46
2022-08-28T03:03:08.454Z,12.48
2022-08-28T03:04:08.445Z,12.49
2022-08-28T03:05:08.435Z,12.44
2022-08-28T03:06:08.428Z,12.48
2022-08-28T03:07:08.411Z,12.51
2022-08-28T03:08:08.401Z,12.49
2022-08-28T03:09:08.389Z,12.49
2022-08-28T03:10:08.378Z,12.44
2022-08-28T03:11:08.369Z,12.44
2022-08-28T03:12:08.366Z,12.34
2022-08-28T03:13:08.345Z,12.34
2022-08-28T03:14:08.334Z,12.26
2022-08-28T03:15:08.322Z,12.22
2022-08-28T03:16:08.313Z,12.13
2022-08-28T03:17:08.300Z,12.07
2022-08-28T03:18:08.399Z,12.07
2022-08-28T03:19:08.277Z,12.03
2022-08-28T03:20:08.270Z,12.07
2022-08-28T03:21:08.254Z,12.07
2022-08-28T03:22:08.245Z,12.04
2022-08-28T03:23:08.232Z,12.00
2022-08-28T03:24:08.229Z,11.96
2022-08-28T03:25:08.212Z,11.90
2022-08-28T03:26:08.214Z,11.98
2022-08-28T03:27:08.191Z,12.00
2022-08-28T03:28:08.179Z,11.96
2022-08-28T03:29:08.169Z,11.77
2022-08-28T03:30:08.156Z,11.70
2022-08-28T03:31:08.277Z,11.63
2022-08-28T03:32:08.133Z,11.59
2022-08-28T03:33:08.121Z,11.46
2022-08-28T03:34:08.120Z,11.41
2022-08-28T03:35:08.098Z,11.35
2022-08-28T03:36:08.089Z,11.30
2022-08-28T03:37:08.078Z,11.35
2022-08-28T03:38:08.068Z,11.39
2022-08-28T03:39:08.056Z,11.39
2022-08-28T03:40:08.143Z,11.36
2022-08-28T03:41:08.034Z,11.33
2022-08-28T03:42:08.025Z,11.41
2022-08-28T03:43:08.011Z,11.39
2022-08-28T03:44:08.004Z,11.42
2022-08-28T03:45:07.989Z,11.44
2022-08-28T03:46:08.043Z,11.46
2022-08-28T03:47:07.967Z,11.48
2022-08-28T03:48:07.959Z,11.51
2022-08-28T03:49:07.947Z,11.45
2022-08-28T03:50:07.937Z,11.49
2022-08-28T03:51:07.924Z,11.46
2022-08-28T03:52:07.916Z,11.46
2022-08-28T03:53:07.902Z,11.48
2022-08-28T03:54:07.894Z,11.39
2022-08-28T03:55:07.881Z,11.35
2022-08-28T03:56:07.871Z,11.38
2022-08-28T03:57:07.861Z,11.48
2022-08-28T03:58:07.850Z,11.51
2022-08-28T03:59:07.840Z,11.57
2022-08-28T04:01:07.881Z,11.57
2022-08-28T04:02:07.807Z,11.57
2022-08-28T04:03:07.860Z,11.56
2022-08-28T04:04:07.788Z,11.48
2022-08-28T04:05:07.773Z,11.49
2022-08-28T04:06:07.766Z,11.46
2022-08-28T04:07:07.749Z,11.44
2022-08-28T04:08:07.739Z,11.41
2022-08-28T04:09:07.726Z,11.39
2022-08-28T04:10:07.734Z,11.35
2022-08-28T04:11:07.713Z,11.33
2022-08-28T04:12:07.696Z,11.28
2022-08-28T04:13:07.685Z,11.24
2022-08-28T04:14:07.676Z,11.23
2022-08-28T04:15:07.660Z,11.27
2022-08-28T04:16:07.711Z,11.23
2022-08-28T04:17:07.719Z,11.20
2022-08-28T04:18:07.631Z,11.17
2022-08-28T04:19:07.616Z,11.12
2022-08-28T04:20:07.615Z,11.12
2022-08-28T04:21:07.597Z,11.11
2022-08-28T04:22:07.586Z,11.12
2022-08-28T04:23:07.573Z,11.11
2022-08-28T04:24:09.671Z,11.21
2022-08-28T04:25:07.555Z,11.26
2022-08-28T04:26:07.542Z,11.26
2022-08-28T04:27:07.532Z,11.31
2022-08-28T04:28:07.520Z,11.31
2022-08-28T04:29:07.507Z,11.28
2022-08-28T04:30:07.500Z,11.26
2022-08-28T04:31:07.488Z,11.28
2022-08-28T04:32:07.582Z,11.27
2022-08-28T04:33:07.474Z,11.30
2022-08-28T04:34:07.455Z,11.31
2022-08-28T04:35:07.445Z,11.31
2022-08-28T04:36:07.435Z,11.31
2022-08-28T04:37:07.420Z,11.33
2022-08-28T04:38:07.411Z,11.26
2022-08-28T04:39:07.398Z,11.20
2022-08-28T04:40:07.498Z,11.09
2022-08-28T04:41:07.376Z,11.12
2022-08-28T04:42:07.366Z,11.17
2022-08-28T04:43:07.362Z,11.17
2022-08-28T04:44:07.358Z,11.33
2022-08-28T04:45:07.331Z,11.28
2022-08-28T04:46:07.437Z,11.23
2022-08-28T04:47:07.308Z,11.26
2022-08-28T04:48:10.535Z,11.21
2022-08-28T04:49:08.318Z,11.17
2022-08-28T04:50:07.277Z,11.17
2022-08-28T04:51:07.263Z,11.19
2022-08-28T04:52:07.257Z,11.17
2022-08-28T04:53:07.245Z,11.23
2022-08-28T04:54:07.240Z,11.31
2022-08-28T04:55:07.241Z,11.30
2022-08-28T04:56:07.216Z,11.33
2022-08-28T04:57:07.199Z,11.39
2022-08-28T04:58:07.191Z,11.36
2022-08-28T04:59:07.178Z,11.33
2022-08-28T05:00:07.177Z,11.31
2022-08-28T05:01:07.203Z,11.27
2022-08-28T05:02:07.184Z,11.33
2022-08-28T05:03:07.168Z,11.35
2022-08-28T05:04:07.136Z,11.41
2022-08-28T05:05:07.171Z,11.41
2022-08-28T05:06:07.258Z,11.49
2022-08-28T05:07:07.240Z,11.53
2022-08-28T05:08:07.309Z,11.56
2022-08-28T05:09:07.215Z,11.57
2022-08-28T05:10:07.240Z,11.59
2022-08-28T05:11:07.083Z,11.60
2022-08-28T05:12:07.038Z,11.54
2022-08-28T05:13:07.025Z,11.57
2022-08-28T05:14:07.014Z,11.53
2022-08-28T05:15:07.026Z,11.62
2022-08-28T05:16:07.105Z,11.62
2022-08-28T05:17:07.391Z,11.67
2022-08-28T05:18:07.054Z,11.69
2022-08-28T05:19:06.960Z,11.74
2022-08-28T05:20:06.954Z,11.82
2022-08-28T05:21:06.942Z,11.93
2022-08-28T05:22:07.082Z,11.94
2022-08-28T05:23:06.915Z,11.98
2022-08-28T05:24:06.908Z,12.05
2022-08-28T05:25:06.897Z,12.08
2022-08-28T05:26:06.890Z,12.15
2022-08-28T05:27:06.873Z,12.23
2022-08-28T05:28:06.941Z,12.33
2022-08-28T05:29:06.963Z,12.41
2022-08-28T05:30:06.853Z,12.48
2022-08-28T05:31:07.000Z,12.46
2022-08-28T05:32:06.818Z,12.48
2022-08-28T05:33:06.807Z,12.48
2022-08-28T05:34:07.070Z,12.56
2022-08-28T05:35:06.788Z,12.61
2022-08-28T05:36:06.774Z,12.66
2022-08-28T05:37:06.760Z,12.73
2022-08-28T05:38:06.852Z,12.76
2022-08-28T05:39:06.738Z,12.80
2022-08-28T05:40:06.825Z,12.85
2022-08-28T05:41:06.713Z,12.94
2022-08-28T05:42:06.708Z,13.03
2022-08-28T05:43:06.692Z,13.10
2022-08-28T05:44:06.684Z,13.21
2022-08-28T05:45:06.671Z,13.29
2022-08-28T05:46:06.697Z,13.35
2022-08-28T05:47:06.649Z,13.43
2022-08-28T05:48:06.708Z,13.41
2022-08-28T05:49:09.848Z,13.55
2022-08-28T05:50:06.615Z,13.57
2022-08-28T05:51:06.650Z,13.62
2022-08-28T05:52:06.593Z,13.73
2022-08-28T05:53:06.583Z,13.73
2022-08-28T05:54:06.572Z,13.83
2022-08-28T05:55:06.564Z,13.90
2022-08-28T05:56:06.552Z,13.91
2022-08-28T05:57:06.538Z,14.05
2022-08-28T05:58:06.529Z,14.02
2022-08-28T05:59:06.516Z,14.09
2022-08-28T06:00:06.510Z,14.08
2022-08-28T06:01:06.494Z,14.19
2022-08-28T06:02:06.594Z,14.29
2022-08-28T06:03:06.489Z,14.31
2022-08-28T06:04:06.507Z,14.30
2022-08-28T06:05:06.457Z,14.39
2022-08-28T06:06:06.444Z,14.45
2022-08-28T06:07:06.429Z,14.52
2022-08-28T06:08:06.487Z,14.57
2022-08-28T06:09:06.406Z,14.61
2022-08-28T06:10:06.393Z,14.69
2022-08-28T06:11:07.211Z,14.79
2022-08-28T06:12:06.372Z,14.79
2022-08-28T06:13:06.549Z,14.83
2022-08-28T06:14:06.372Z,14.90
2022-08-28T06:15:06.338Z,14.87
2022-08-28T06:16:06.358Z,14.79
2022-08-28T06:17:06.320Z,14.85
2022-08-28T06:18:06.335Z,14.95
2022-08-28T06:19:06.300Z,15.03
2022-08-28T06:20:06.288Z,15.11
2022-08-28T06:21:06.272Z,15.19
2022-08-28T06:22:07.071Z,15.18
2022-08-28T06:23:06.253Z,15.27
2022-08-28T06:24:06.238Z,15.27
2022-08-28T06:25:08.002Z,15.31
2022-08-28T06:26:06.218Z,15.40
2022-08-28T06:27:06.206Z,15.40
2022-08-28T06:28:06.195Z,15.37
2022-08-28T06:29:06.183Z,15.49
2022-08-28T06:30:06.171Z,15.56
2022-08-28T06:31:23.305Z,15.56
2022-08-28T06:32:07.293Z,15.74
2022-08-28T06:33:06.142Z,15.84
2022-08-28T06:34:06.129Z,15.93
2022-08-28T06:35:06.118Z,15.95
2022-08-28T06:36:06.108Z,16.08
2022-08-28T06:37:06.097Z,16.29
2022-08-28T06:38:06.136Z,16.32
2022-08-28T06:39:06.076Z,16.37
2022-08-28T06:40:06.125Z,16.27
2022-08-28T06:41:06.055Z,16.54
2022-08-28T06:42:06.041Z,16.57
2022-08-28T06:43:06.031Z,16.60
2022-08-28T06:44:06.019Z,16.85
2022-08-28T06:45:06.009Z,16.99
2022-08-28T06:46:06.063Z,17.15
2022-08-28T06:47:06.001Z,17.03
2022-08-28T06:48:06.037Z,16.92
2022-08-28T06:49:05.966Z,16.77
2022-08-28T06:50:05.953Z,16.66
2022-08-28T06:51:05.944Z,16.57
2022-08-28T06:52:05.935Z,16.55
2022-08-28T06:53:05.922Z,16.73
2022-08-28T06:54:05.905Z,16.78
2022-08-28T06:55:05.899Z,17.07
2022-08-28T06:56:05.886Z,17.12
2022-08-28T06:57:05.877Z,17.24
2022-08-28T06:58:05.922Z,17.25
2022-08-28T06:59:05.888Z,17.49
2022-08-28T07:00:05.844Z,17.86
2022-08-28T07:01:05.857Z,17.91
2022-08-28T07:02:05.975Z,18.38
2022-08-28T07:03:05.826Z,18.64
2022-08-28T07:04:05.802Z,18.78
2022-08-28T07:05:05.792Z,18.71
2022-08-28T07:06:05.930Z,18.89
2022-08-28T07:07:05.768Z,19.07
2022-08-28T07:08:05.839Z,19.38
2022-08-28T07:09:05.745Z,19.70
2022-08-28T07:10:05.843Z,19.70
2022-08-28T07:11:05.724Z,19.58
2022-08-28T07:12:05.711Z,19.58
2022-08-28T07:13:05.702Z,19.78
2022-08-28T07:14:05.690Z,19.79
2022-08-28T07:15:05.682Z,19.85
2022-08-28T07:16:05.736Z,20.12
2022-08-28T07:17:05.659Z,20.13
2022-08-28T07:18:05.699Z,20.12
2022-08-28T07:19:05.641Z,20.12
2022-08-28T07:20:05.624Z,20.25
2022-08-28T07:21:08.053Z,20.37
2022-08-28T07:22:06.629Z,20.72
2022-08-28T07:23:05.592Z,20.75
2022-08-28T07:24:05.583Z,20.75
2022-08-28T07:25:05.576Z,20.66
2022-08-28T07:26:05.561Z,20.35
2022-08-28T07:27:05.552Z,20.48
2022-08-28T07:28:05.567Z,20.25
2022-08-28T07:29:10.091Z,20.17
2022-08-28T07:30:05.515Z,20.33
2022-08-28T07:31:05.585Z,20.57
2022-08-28T07:32:05.513Z,20.85
2022-08-28T07:33:05.486Z,20.85
2022-08-28T07:34:05.474Z,20.96
2022-08-28T07:35:05.464Z,21.05
2022-08-28T07:36:05.458Z,21.26
2022-08-28T07:37:05.442Z,21.36
2022-08-28T07:38:05.432Z,21.66
2022-08-28T07:39:05.426Z,21.58
2022-08-28T07:40:05.447Z,21.70
2022-08-28T07:41:05.403Z,21.66
2022-08-28T07:42:05.390Z,21.33
2022-08-28T07:43:05.572Z,21.28
2022-08-28T07:44:05.367Z,21.52
2022-08-28T07:45:05.358Z,22.01
2022-08-28T07:46:05.440Z,22.38
2022-08-28T07:47:05.336Z,22.59
2022-08-28T07:48:09.499Z,22.42
2022-08-28T07:49:05.313Z,22.31
2022-08-28T07:50:05.302Z,22.51
2022-08-28T07:51:05.296Z,22.97
2022-08-28T07:52:05.281Z,23.07
2022-08-28T07:53:05.378Z,22.81
2022-08-28T07:54:05.263Z,22.85
2022-08-28T07:55:05.249Z,22.86
2022-08-28T07:56:05.236Z,22.93
2022-08-28T07:57:05.226Z,22.69
2022-08-28T07:58:05.223Z,22.54
2022-08-28T07:59:05.207Z,22.74
2022-08-28T08:00:05.196Z,23.06
2022-08-28T08:01:05.202Z,23.38
2022-08-28T08:02:05.172Z,23.34
2022-08-28T08:03:05.211Z,22.97
2022-08-28T08:04:05.212Z,23.04
2022-08-28T08:05:05.406Z,23.49
2022-08-28T08:06:05.138Z,23.64
2022-08-28T08:07:05.273Z,23.97
2022-08-28T08:08:05.113Z,23.78
2022-08-28T08:09:05.102Z,23.69
2022-08-28T08:10:05.091Z,23.69
2022-08-28T08:11:05.086Z,23.69
2022-08-28T08:12:05.072Z,23.56
2022-08-28T08:13:05.064Z,23.79
2022-08-28T08:14:05.672Z,23.64
2022-08-28T08:15:05.046Z,23.86
2022-08-28T08:16:05.048Z,24.26
2022-08-28T08:17:05.021Z,24.68
2022-08-28T08:18:05.154Z,24.74
2022-08-28T08:19:05.006Z,24.77
2022-08-28T08:20:05.031Z,25.01
2022-08-28T08:21:04.982Z,24.34
2022-08-28T08:22:04.969Z,23.81
2022-08-28T08:23:04.958Z,23.25
2022-08-28T08:24:04.948Z,22.85
2022-08-28T08:25:04.940Z,22.42
2022-08-28T08:26:05.138Z,22.61
2022-08-28T08:27:04.936Z,22.56
2022-08-28T08:28:05.045Z,22.14
2022-08-28T08:29:04.929Z,21.64
2022-08-28T08:30:04.885Z,21.31
2022-08-28T08:31:04.970Z,21.08
2022-08-28T08:32:04.998Z,20.82
2022-08-28T08:33:04.852Z,20.83
2022-08-28T08:34:05.092Z,20.83
2022-08-28T08:35:04.830Z,21.89
2022-08-28T08:36:04.819Z,22.81
2022-08-28T08:37:04.813Z,23.37
2022-08-28T08:38:04.818Z,23.63
2022-08-28T08:39:06.527Z,24.21
2022-08-28T08:40:07.618Z,24.34
2022-08-28T08:41:04.768Z,23.69
2022-08-28T08:42:04.759Z,24.21
2022-08-28T08:43:04.750Z,23.84
2022-08-28T08:44:04.737Z,24.30
2022-08-28T08:45:04.728Z,24.14
2022-08-28T08:46:04.768Z,24.21
2022-08-28T08:47:04.709Z,24.48
2022-08-28T08:48:04.694Z,24.77
2022-08-28T08:49:04.692Z,24.31
2022-08-28T08:50:04.688Z,24.52
2022-08-28T08:51:04.664Z,24.70
2022-08-28T08:52:04.656Z,25.08
2022-08-28T08:53:04.645Z,25.20
2022-08-28T08:54:04.629Z,24.89
2022-08-28T08:55:04.620Z,25.11
2022-08-28T08:56:04.609Z,25.08
2022-08-28T08:57:04.600Z,25.11
2022-08-28T08:58:04.591Z,25.05
2022-08-28T08:59:04.582Z,25.30
2022-08-28T09:00:04.584Z,25.45
2022-08-28T09:01:04.651Z,25.71
2022-08-28T09:02:04.552Z,26.00
2022-08-28T09:03:04.585Z,25.59
2022-08-28T09:04:04.526Z,25.69
2022-08-28T09:05:04.554Z,25.39
2022-08-28T09:06:04.507Z,25.78
2022-08-28T09:07:04.500Z,26.23
2022-08-28T09:08:04.489Z,25.64
2022-08-28T09:09:04.482Z,24.87
2022-08-28T09:10:04.465Z,24.09
2022-08-28T09:11:04.464Z,23.22
2022-08-28T09:12:04.446Z,22.86
2022-08-28T09:13:04.450Z,22.59
2022-08-28T09:14:04.445Z,22.46
2022-08-28T09:15:04.417Z,22.17
2022-08-28T09:16:04.462Z,22.09
2022-08-28T09:17:04.395Z,22.04
2022-08-28T09:18:04.396Z,23.12
2022-08-28T09:19:04.377Z,23.39
2022-08-28T09:20:04.363Z,23.87
2022-08-28T09:21:04.355Z,24.23
2022-08-28T09:22:04.345Z,24.21
2022-08-28T09:23:12.439Z,23.79
2022-08-28T09:24:05.892Z,23.31
2022-08-28T09:25:04.330Z,23.07
2022-08-28T09:26:04.309Z,22.96
2022-08-28T09:27:04.314Z,22.60
2022-08-28T09:28:04.294Z,22.20
2022-08-28T09:29:04.274Z,22.61
2022-08-28T09:30:07.587Z,23.53
2022-08-28T09:31:04.332Z,24.15
2022-08-28T09:32:04.246Z,24.90
2022-08-28T09:33:04.244Z,25.29
2022-08-28T09:34:04.227Z,25.54
2022-08-28T09:35:04.247Z,25.85
2022-08-28T09:36:04.198Z,26.12
2022-08-28T09:37:04.190Z,26.19
2022-08-28T09:38:04.176Z,26.79
2022-08-28T09:39:04.172Z,27.12
2022-08-28T09:40:04.195Z,26.54
2022-08-28T09:41:04.151Z,25.11
2022-08-28T09:42:04.136Z,24.30
2022-08-28T09:43:04.134Z,23.69
2022-08-28T09:44:04.119Z,22.97
2022-08-28T09:45:09.428Z,22.63
2022-08-28T09:46:04.141Z,22.49
2022-08-28T09:47:04.085Z,22.57
2022-08-28T09:48:04.074Z,22.45
2022-08-28T09:49:04.068Z,22.39
2022-08-28T09:50:04.055Z,22.45
2022-08-28T09:51:04.048Z,22.64
2022-08-28T09:52:04.031Z,23.74
2022-08-28T09:53:04.022Z,24.94
2022-08-28T09:54:04.018Z,26.16
2022-08-28T09:55:04.005Z,27.05
2022-08-28T09:56:04.029Z,26.12
2022-08-28T09:57:04.178Z,25.19
2022-08-28T09:58:03.983Z,25.64
2022-08-28T09:59:03.961Z,25.11
2022-08-28T10:00:03.951Z,24.16
2022-08-28T10:01:03.940Z,23.77
2022-08-28T10:02:03.998Z,23.18
2022-08-28T10:03:07.561Z,23.01
2022-08-28T10:04:03.946Z,23.00
2022-08-28T10:05:03.999Z,23.03
2022-08-28T10:06:03.893Z,23.01
2022-08-28T10:07:03.886Z,23.06
2022-08-28T10:08:03.868Z,23.26
2022-08-28T10:09:04.155Z,23.67
2022-08-28T10:10:06.564Z,24.06
2022-08-28T10:11:03.833Z,23.97
2022-08-28T10:12:03.834Z,23.90
2022-08-28T10:13:03.818Z,23.59
2022-08-28T10:14:03.824Z,23.18
2022-08-28T10:15:03.803Z,23.44
2022-08-28T10:16:03.851Z,24.16
2022-08-28T10:17:03.793Z,24.97
2022-08-28T10:18:03.762Z,25.44
2022-08-28T10:19:03.968Z,25.90
2022-08-28T10:20:03.743Z,26.42
2022-08-28T10:21:03.725Z,26.97
2022-08-28T10:22:04.888Z,27.49
2022-08-28T10:23:03.703Z,26.88
2022-08-28T10:24:03.719Z,26.42
2022-08-28T10:25:03.691Z,25.90
2022-08-28T10:26:03.895Z,25.56
2022-08-28T10:27:03.681Z,25.46
2022-08-28T10:28:03.761Z,25.90
2022-08-28T10:29:03.795Z,25.54
2022-08-28T10:30:07.728Z,24.87
2022-08-28T10:31:03.764Z,24.46
2022-08-28T10:32:03.669Z,24.14
2022-08-28T10:33:03.815Z,24.05
2022-08-28T10:34:03.689Z,23.96
2022-08-28T10:35:03.637Z,23.74
2022-08-28T10:36:03.615Z,23.54
2022-08-28T10:37:03.621Z,23.31
2022-08-28T10:38:03.618Z,23.45
2022-08-28T10:39:03.643Z,23.34
2022-08-28T10:40:04.532Z,23.39
2022-08-28T10:41:03.554Z,23.14
2022-08-28T10:42:03.562Z,22.99
2022-08-28T10:43:03.617Z,22.88
2022-08-28T10:44:03.495Z,22.97
2022-08-28T10:45:03.477Z,23.38
2022-08-28T10:46:03.519Z,23.77
2022-08-28T10:47:03.459Z,24.83
2022-08-28T10:48:03.446Z,25.46
2022-08-28T10:49:03.433Z,25.05
2022-08-28T10:50:03.427Z,24.46
2022-08-28T10:51:03.413Z,24.89
2022-08-28T10:52:04.605Z,25.19
2022-08-28T10:53:03.393Z,24.45
2022-08-28T10:54:03.386Z,24.09
2022-08-28T10:55:03.507Z,24.34
2022-08-28T10:56:03.376Z,25.19
2022-08-28T10:57:03.361Z,25.20
2022-08-28T10:58:03.343Z,26.08
2022-08-28T10:59:03.328Z,27.21
2022-08-28T11:00:03.321Z,28.27
2022-08-28T11:01:03.407Z,28.36
2022-08-28T11:02:03.303Z,27.74
2022-08-28T11:03:03.348Z,26.60
2022-08-28T11:04:03.282Z,25.56
2022-08-28T11:05:03.278Z,24.61
2022-08-28T11:06:03.296Z,24.44
2022-08-28T11:07:03.263Z,24.16
2022-08-28T11:08:03.251Z,24.15
2022-08-28T11:09:03.235Z,23.87
2022-08-28T11:10:03.231Z,23.60
2022-08-28T11:11:03.208Z,23.53
2022-08-28T11:12:03.209Z,23.35
2022-08-28T11:13:03.188Z,23.15
2022-08-28T11:14:03.182Z,23.19
2022-08-28T11:15:03.333Z,23.18
2022-08-28T11:16:03.156Z,23.44
2022-08-28T11:17:03.251Z,23.77
2022-08-28T11:18:03.177Z,24.21
2022-08-28T11:19:03.142Z,24.18
2022-08-28T11:20:03.113Z,24.09
2022-08-28T11:21:03.098Z,23.64
2022-08-28T11:22:03.093Z,23.59
2022-08-28T11:23:03.079Z,24.42
2022-08-28T11:24:03.081Z,25.35
2022-08-28T11:25:06.522Z,26.38
2022-08-28T11:26:03.053Z,26.04
2022-08-28T11:27:03.039Z,25.64
2022-08-28T11:28:03.026Z,25.26
2022-08-28T11:29:04.274Z,25.20
2022-08-28T11:30:03.011Z,25.04
2022-08-28T11:31:03.089Z,24.46
2022-08-28T11:32:02.988Z,24.00
2022-08-28T11:33:02.973Z,23.59
2022-08-28T11:34:02.965Z,23.53
2022-08-28T11:35:02.951Z,23.47
2022-08-28T11:36:02.943Z,23.45
2022-08-28T11:37:02.928Z,23.41
2022-08-28T11:38:02.923Z,23.44
2022-08-28T11:39:02.920Z,23.49
2022-08-28T11:40:02.939Z,23.68
2022-08-28T11:41:03.076Z,23.84
2022-08-28T11:42:02.912Z,24.00
2022-08-28T11:43:02.915Z,24.66
2022-08-28T11:44:02.860Z,26.06
2022-08-28T11:45:02.848Z,26.72
2022-08-28T11:46:02.885Z,26.96
2022-08-28T11:47:02.825Z,26.97
2022-08-28T11:48:02.818Z,27.28
2022-08-28T11:49:02.807Z,27.77
2022-08-28T11:50:02.801Z,27.45
2022-08-28T11:51:02.783Z,26.08
2022-08-28T11:52:02.773Z,25.46
2022-08-28T11:53:02.793Z,25.48
2022-08-28T11:54:02.777Z,26.21
2022-08-28T11:55:03.722Z,26.78
2022-08-28T11:56:02.736Z,26.66
2022-08-28T11:57:02.728Z,26.54
2022-08-28T11:58:27.163Z,26.65
2022-08-28T11:59:34.923Z,27.11
2022-08-28T12:00:28.154Z,27.35
2022-08-28T12:01:27.122Z,28.13
2022-08-28T12:02:27.157Z,27.84
2022-08-28T12:03:27.100Z,27.05
2022-08-28T12:04:27.103Z,26.34
2022-08-28T12:05:27.083Z,26.09
2022-08-28T12:06:27.141Z,26.06
2022-08-28T12:07:27.060Z,25.94
2022-08-28T12:08:27.048Z,26.06
2022-08-28T12:09:27.303Z,26.03
2022-08-28T12:10:27.660Z,25.89
2022-08-28T12:11:27.019Z,25.74
2022-08-28T12:12:27.301Z,25.24
2022-08-28T12:13:27.003Z,25.04
2022-08-28T12:14:27.215Z,24.80
2022-08-28T12:15:27.250Z,25.07
2022-08-28T12:16:27.097Z,25.85
2022-08-28T12:17:31.055Z,25.86
2022-08-28T12:18:27.071Z,26.00
2022-08-28T12:19:26.970Z,26.47
2022-08-28T12:20:27.755Z,26.79
2022-08-28T12:21:26.912Z,27.72
2022-08-28T12:22:26.902Z,27.87
2022-08-28T12:23:27.157Z,28.46
2022-08-28T12:37:42.920Z,26.94
2022-08-28T12:38:34.321Z,26.71
2022-08-28T12:39:33.276Z,26.86
2022-08-28T12:40:33.440Z,26.56
2022-08-28T12:41:33.259Z,26.39
2022-08-28T12:42:33.242Z,26.11
2022-08-28T12:43:33.235Z,25.53
2022-08-28T12:44:33.223Z,25.67
2022-08-28T12:45:33.244Z,25.54
2022-08-28T12:46:33.224Z,25.75
2022-08-28T12:47:33.534Z,26.44
2022-08-28T12:48:33.395Z,27.53
2022-08-28T12:49:33.398Z,27.74
2022-08-28T12:50:33.395Z,27.48
2022-08-28T12:51:33.401Z,28.05
2022-08-28T12:59:57.828Z,27.11
2022-08-28T13:00:57.955Z,26.68
2022-08-28T13:01:57.911Z,27.52
2022-08-28T13:02:57.777Z,27.02
2022-08-28T13:03:57.761Z,27.74
2022-08-28T13:04:57.761Z,28.35
2022-08-28T13:05:57.742Z,28.77
2022-08-28T13:06:57.742Z,29.21
2022-08-28T13:07:57.719Z,28.51
2022-08-28T13:08:57.715Z,26.68
2022-08-28T13:09:58.719Z,25.90
2022-08-28T13:10:57.696Z,26.86
2022-08-28T13:11:57.682Z,27.21
2022-08-28T13:12:59.823Z,27.63
2022-08-28T13:13:57.659Z,26.91